Time;durP1;ratioP1;P1;durP2;ratioP2;P2;SDS_P1;SDS_P2;PMS_P1;PMS_P2;Temp;Humidity;BMP_temperature;BMP_pressure;BME280_temperature;BME280_humidity;BME280_pressure;Samples;Min_cycle;Max_cycle;Signal;HPM_P1;HPM_P2
2022/12/11 00:00:43;;;;;;;18.48;6.95;;;;;;;;;;8401516;28;20131;-90
2022/12/11 00:05:07;;;;;;;29.65;11.65;;;;;;;;;;8401691;28;20601;-84
2022/12/11 00:09:10;;;;;;;21.85;9.00;;;;;;;;;;8400902;28;20057;-92
2022/12/11 00:13:14;;;;;;;30.05;10.45;;;;;;;;;;8401184;28;20124;-91
2022/12/11 00:17:17;;;;;;;45.08;16.08;;;;;;;;;;8401360;28;20056;-90
2022/12/11 00:21:20;;;;;;;36.67;13.30;;;;;;;;;;8401293;28;20408;-88
2022/12/11 00:25:23;;;;;;;18.42;7.63;;;;;;;;;;8401173;28;20131;-92
2022/12/11 00:29:27;;;;;;;44.40;15.68;;;;;;;;;;8400711;28;20059;-90
2022/12/11 00:33:30;;;;;;;35.75;13.20;;;;;;;;;;8400323;28;20075;-87
2022/12/11 00:37:33;;;;;;;43.38;15.90;;;;;;;;;;8399317;28;20040;-92
2022/12/11 00:41:35;;;;;;;32.53;11.15;;;;;;;;;;8400575;28;20048;-91
2022/12/11 00:45:42;;;;;;;38.17;12.48;;;;;;;;;;8400065;28;20093;-85
2022/12/11 00:49:44;;;;;;;34.67;11.95;;;;;;;;;;8400071;28;20055;-91
2022/12/11 00:53:47;;;;;;;32.55;11.77;;;;;;;;;;8399653;28;20064;-87
2022/12/11 00:57:51;;;;;;;37.05;12.77;;;;;;;;;;8399844;28;20373;-83
2022/12/11 01:01:56;;;;;;;34.38;14.10;;;;;;;;;;8399561;28;20415;-88
2022/12/11 01:05:58;;;;;;;42.08;13.70;;;;;;;;;;8395640;28;20048;-90
2022/12/11 01:14:21;;;;;;;31.05;12.27;;;;;;;;;;8399153;28;20048;-92
2022/12/11 01:18:27;;;;;;;31.90;11.35;;;;;;;;;;8398992;28;20049;-85
2022/12/11 01:22:30;;;;;;;42.03;14.65;;;;;;;;;;8398858;28;20101;-88
2022/12/11 01:26:32;;;;;;;25.55;9.00;;;;;;;;;;8398513;28;20115;-89
2022/12/11 01:30:36;;;;;;;32.88;14.35;;;;;;;;;;8398584;28;20059;-86
2022/12/11 01:34:40;;;;;;;15.77;6.55;;;;;;;;;;8398282;28;20055;-90
2022/12/11 01:38:43;;;;;;;17.63;6.55;;;;;;;;;;8398303;28;20044;-92
2022/12/11 01:42:46;;;;;;;28.52;12.05;;;;;;;;;;8398238;28;20464;-92
2022/12/11 01:46:49;;;;;;;28.65;9.90;;;;;;;;;;8398167;28;20040;-92
2022/12/11 01:50:56;;;;;;;52.90;19.38;;;;;;;;;;8397868;28;20457;-90
2022/12/11 01:55:00;;;;;;;43.40;15.65;;;;;;;;;;8397976;28;20046;-88
2022/12/11 01:59:06;;;;;;;28.52;11.32;;;;;;;;;;8397726;28;20051;-92
2022/12/11 02:03:08;;;;;;;15.55;8.80;;;;;;;;;;8397740;28;20057;-87
2022/12/11 02:07:12;;;;;;;29.42;12.02;;;;;;;;;;8397702;28;20048;-92
2022/12/11 02:11:24;;;;;;;19.38;8.45;;;;;;;;;;8394357;28;20063;-91
2022/12/11 02:15:33;;;;;;;30.23;12.50;;;;;;;;;;8389590;28;20058;-91
2022/12/11 02:19:49;;;;;;;29.00;11.25;;;;;;;;;;8370287;28;20646;-89
2022/12/11 02:24:20;;;;;;;18.50;8.15;;;;;;;;;;8398750;28;20449;-92
2022/12/11 02:28:29;;;;;;;24.67;9.52;;;;;;;;;;8401464;28;20494;-88
2022/12/11 02:32:38;;;;;;;17.75;7.05;;;;;;;;;;8400387;28;20508;-91
2022/12/11 02:36:44;;;;;;;25.80;10.80;;;;;;;;;;8383523;28;20063;-92
2022/12/11 02:40:49;;;;;;;12.70;5.75;;;;;;;;;;8401256;28;20040;-85
2022/12/11 02:44:55;;;;;;;28.13;11.77;;;;;;;;;;8403822;28;20040;-91
2022/12/11 02:48:58;;;;;;;8.27;4.20;;;;;;;;;;8403480;28;20052;-91
2022/12/11 02:53:04;;;;;;;20.10;8.57;;;;;;;;;;8401086;28;20036;-85
2022/12/11 02:57:10;;;;;;;17.52;8.45;;;;;;;;;;8411670;28;20036;-84
2022/12/11 03:01:14;;;;;;;21.58;8.93;;;;;;;;;;8392152;28;20052;-88
2022/12/11 03:05:17;;;;;;;17.05;7.80;;;;;;;;;;8401803;28;20468;-89
2022/12/11 03:09:20;;;;;;;14.07;7.18;;;;;;;;;;8403804;28;20067;-88
2022/12/11 03:13:23;;;;;;;17.38;8.13;;;;;;;;;;8397719;28;20045;-87
2022/12/11 03:17:33;;;;;;;8.98;4.88;;;;;;;;;;8383482;28;20044;-91
2022/12/11 03:21:44;;;;;;;16.70;8.23;;;;;;;;;;8404408;28;20072;-87
2022/12/11 03:25:53;;;;;;;22.10;9.27;;;;;;;;;;8404431;28;20092;-89
2022/12/11 03:29:59;;;;;;;13.15;6.90;;;;;;;;;;8427508;28;20047;-90
2022/12/11 03:34:11;;;;;;;20.75;8.43;;;;;;;;;;8416885;28;20101;-85
2022/12/11 03:38:19;;;;;;;24.17;9.53;;;;;;;;;;8406110;28;20044;-93
2022/12/11 03:42:23;;;;;;;13.20;6.32;;;;;;;;;;8407941;28;20100;-90
2022/12/11 03:46:30;;;;;;;19.80;9.10;;;;;;;;;;8405687;28;20125;-92
2022/12/11 03:50:35;;;;;;;22.33;8.88;;;;;;;;;;8408751;28;20543;-85
2022/12/11 03:54:39;;;;;;;19.48;7.95;;;;;;;;;;8410092;28;20052;-86
2022/12/11 03:58:42;;;;;;;8.65;4.45;;;;;;;;;;8404702;28;20093;-90
2022/12/11 04:03:11;;;;;;;21.27;8.90;;;;;;;;;;8393084;28;20075;-87
2022/12/11 04:07:10;;;;;;;16.73;7.95;;;;;;;;;;8409613;28;20036;-91
2022/12/11 04:15:33;;;;;;;21.67;8.80;;;;;;;;;;8415388;28;20475;-93
2022/12/11 04:24:15;;;;;;;20.55;8.65;;;;;;;;;;8412896;28;20044;-89
2022/12/11 04:28:17;;;;;;;14.50;6.93;;;;;;;;;;8412481;28;20104;-90
2022/12/11 04:32:20;;;;;;;20.20;8.90;;;;;;;;;;8398084;28;20040;-84
2022/12/11 04:36:23;;;;;;;16.48;8.18;;;;;;;;;;8405374;28;20076;-92
2022/12/11 04:40:27;;;;;;;24.15;8.98;;;;;;;;;;8405293;28;20067;-92
2022/12/11 04:44:30;;;;;;;25.98;10.82;;;;;;;;;;8402832;28;20051;-93
2022/12/11 04:48:33;;;;;;;23.70;10.35;;;;;;;;;;8402213;28;20040;-90
2022/12/11 04:52:35;;;;;;;19.98;8.73;;;;;;;;;;8403554;28;20392;-93
2022/12/11 04:56:40;;;;;;;21.73;10.25;;;;;;;;;;8405486;28;20044;-92
2022/12/11 05:00:42;;;;;;;22.38;9.95;;;;;;;;;;8402668;28;20544;-91
2022/12/11 05:04:53;;;;;;;15.70;6.95;;;;;;;;;;8404677;28;20048;-90
2022/12/11 05:08:58;;;;;;;27.70;10.00;;;;;;;;;;8400808;28;20108;-92
2022/12/11 05:13:02;;;;;;;32.03;11.48;;;;;;;;;;8402625;28;20128;-86
2022/12/11 05:17:05;;;;;;;28.60;10.05;;;;;;;;;;8397918;28;20036;-84
2022/12/11 05:21:09;;;;;;;17.88;6.80;;;;;;;;;;8395634;28;20115;-92
2022/12/11 05:25:12;;;;;;;24.00;9.80;;;;;;;;;;8390581;28;20071;-89
2022/12/11 05:29:16;;;;;;;23.17;9.63;;;;;;;;;;8393301;28;20507;-86
2022/12/11 05:33:19;;;;;;;22.20;8.93;;;;;;;;;;8394443;28;20040;-85
2022/12/11 05:37:21;;;;;;;23.05;8.65;;;;;;;;;;8398716;28;20079;-84
2022/12/11 05:41:26;;;;;;;25.80;10.70;;;;;;;;;;8398405;28;20095;-86
2022/12/11 05:45:31;;;;;;;7.63;3.63;;;;;;;;;;8400411;28;20449;-85
2022/12/11 05:49:33;;;;;;;24.38;9.88;;;;;;;;;;8397662;28;20094;-89
2022/12/11 05:53:37;;;;;;;26.55;10.27;;;;;;;;;;8401593;28;20044;-93
2022/12/11 05:57:40;;;;;;;21.63;8.80;;;;;;;;;;8403550;28;20057;-85
2022/12/11 06:01:44;;;;;;;24.58;9.88;;;;;;;;;;8398539;28;20045;-90
2022/12/11 06:05:47;;;;;;;27.55;11.68;;;;;;;;;;8396187;28;20694;-88
2022/12/11 06:09:49;;;;;;;17.38;7.93;;;;;;;;;;8397925;28;20396;-92
2022/12/11 06:13:52;;;;;;;22.58;8.63;;;;;;;;;;8397712;28;20523;-83
2022/12/11 06:17:57;;;;;;;24.60;9.43;;;;;;;;;;8395793;28;20071;-92
2022/12/11 06:21:59;;;;;;;23.35;8.15;;;;;;;;;;8399446;28;20048;-92
2022/12/11 06:26:04;;;;;;;17.80;7.75;;;;;;;;;;8398838;28;20056;-87
2022/12/11 06:30:08;;;;;;;18.55;8.75;;;;;;;;;;8391770;28;20469;-85
2022/12/11 06:34:13;;;;;;;10.05;5.25;;;;;;;;;;8395475;28;20044;-94
2022/12/11 06:38:16;;;;;;;27.70;10.52;;;;;;;;;;8401900;28;20067;-88
2022/12/11 06:42:19;;;;;;;15.35;6.47;;;;;;;;;;8397104;28;20047;-95
2022/12/11 06:46:22;;;;;;;12.60;4.55;;;;;;;;;;8396945;28;20049;-92
2022/12/11 06:50:26;;;;;;;19.08;7.82;;;;;;;;;;8384513;28;20166;-94
2022/12/11 06:54:29;;;;;;;13.02;5.85;;;;;;;;;;8397812;28;20048;-92
2022/12/11 06:58:33;;;;;;;16.95;7.32;;;;;;;;;;8396912;28;20055;-89
2022/12/11 07:02:36;;;;;;;18.33;8.38;;;;;;;;;;8412118;28;20445;-93
2022/12/11 07:06:40;;;;;;;14.07;6.22;;;;;;;;;;8399000;28;20040;-91
2022/12/11 07:10:43;;;;;;;10.32;5.13;;;;;;;;;;8403828;28;20511;-93
2022/12/11 07:14:45;;;;;;;20.48;8.00;;;;;;;;;;8405241;28;20100;-94
2022/12/11 07:18:50;;;;;;;28.27;10.45;;;;;;;;;;8406101;28;20494;-83
2022/12/11 07:23:03;;;;;;;27.65;11.00;;;;;;;;;;8403484;28;20100;-87
2022/12/11 07:27:06;;;;;;;22.83;9.20;;;;;;;;;;8401836;28;20041;-92
2022/12/11 07:31:14;;;;;;;28.27;11.57;;;;;;;;;;8410611;28;20037;-82
2022/12/11 07:35:17;;;;;;;30.00;10.63;;;;;;;;;;8412616;28;20060;-83
2022/12/11 07:39:21;;;;;;;20.85;9.20;;;;;;;;;;8408576;28;20040;-82
2022/12/11 07:43:26;;;;;;;23.15;10.60;;;;;;;;;;8417150;28;20468;-93
2022/12/11 07:47:29;;;;;;;27.00;10.18;;;;;;;;;;8409441;28;20041;-89
2022/12/11 07:51:35;;;;;;;24.85;10.65;;;;;;;;;;8417269;28;20048;-90
2022/12/11 07:55:40;;;;;;;29.83;12.27;;;;;;;;;;8413617;28;20067;-82
2022/12/11 07:59:43;;;;;;;17.98;8.40;;;;;;;;;;8408873;28;20055;-83
2022/12/11 08:03:47;;;;;;;21.40;8.82;;;;;;;;;;8407633;28;20561;-91
2022/12/11 08:07:52;;;;;;;4.47;2.78;;;;;;;;;;8417251;28;20452;-83
2022/12/11 08:12:25;;;;;;;21.15;9.82;;;;;;;;;;8425735;28;20519;-93
2022/12/11 08:16:28;;;;;;;31.42;12.07;;;;;;;;;;8417681;28;20080;-93
2022/12/11 08:20:30;;;;;;;12.40;5.50;;;;;;;;;;8407440;28;20068;-95
2022/12/11 08:24:33;;;;;;;17.42;9.32;;;;;;;;;;8422543;28;20052;-82
2022/12/11 08:28:38;;;;;;;36.47;10.88;;;;;;;;;;8417850;28;20117;-87
2022/12/11 08:32:41;;;;;;;18.52;6.90;;;;;;;;;;8416969;28;20408;-95
2022/12/11 08:36:43;;;;;;;27.35;12.73;;;;;;;;;;8411627;28;20101;-89
2022/12/11 08:40:46;;;;;;;22.45;9.07;;;;;;;;;;8421591;28;20041;-93
2022/12/11 08:44:52;;;;;;;23.50;9.07;;;;;;;;;;8425985;28;20046;-86
2022/12/11 08:48:57;;;;;;;22.85;9.45;;;;;;;;;;8420392;28;20041;-90
2022/12/11 08:52:59;;;;;;;13.48;5.18;;;;;;;;;;8407514;28;20056;-87
2022/12/11 08:57:02;;;;;;;24.08;9.90;;;;;;;;;;8407011;28;20140;-86
2022/12/11 09:01:12;;;;;;;14.02;6.85;;;;;;;;;;8409265;28;20111;-93
2022/12/11 09:05:16;;;;;;;19.52;7.88;;;;;;;;;;8421475;28;20048;-95
2022/12/11 09:09:19;;;;;;;18.02;8.38;;;;;;;;;;8402580;28;20080;-88
2022/12/11 09:13:23;;;;;;;15.07;7.05;;;;;;;;;;8396774;28;20060;-90
2022/12/11 09:17:27;;;;;;;19.00;7.82;;;;;;;;;;8398086;28;20044;-94
2022/12/11 09:21:33;;;;;;;8.15;4.25;;;;;;;;;;8399546;28;20049;-90
2022/12/11 09:25:41;;;;;;;11.82;6.00;;;;;;;;;;8399230;28;20048;-82
2022/12/11 09:29:44;;;;;;;13.23;6.70;;;;;;;;;;8397723;28;20569;-85
2022/12/11 09:33:49;;;;;;;11.45;5.95;;;;;;;;;;8398149;28;20048;-88
2022/12/11 09:37:53;;;;;;;10.50;4.88;;;;;;;;;;8403899;28;20058;-87
2022/12/11 09:42:01;;;;;;;10.68;5.15;;;;;;;;;;8395085;28;20056;-93
2022/12/11 09:46:09;;;;;;;12.18;5.63;;;;;;;;;;8414259;28;20499;-86
2022/12/11 09:50:21;;;;;;;14.23;7.22;;;;;;;;;;8413540;28;20047;-94
2022/12/11 09:54:24;;;;;;;13.93;7.18;;;;;;;;;;8402781;28;20094;-96
2022/12/11 09:58:37;;;;;;;11.90;6.40;;;;;;;;;;8399244;28;20052;-95
2022/12/11 10:03:10;;;;;;;18.88;8.02;;;;;;;;;;8402725;28;20151;-93
2022/12/11 10:07:29;;;;;;;13.80;7.65;;;;;;;;;;8404062;28;20105;-95
2022/12/11 10:11:48;;;;;;;20.75;8.45;;;;;;;;;;8402468;28;20488;-95
2022/12/11 10:15:56;;;;;;;32.75;13.07;;;;;;;;;;8401486;28;20048;-95
2022/12/11 10:20:08;;;;;;;28.08;10.57;;;;;;;;;;8400144;28;20045;-95
2022/12/11 10:24:22;;;;;;;22.45;10.63;;;;;;;;;;8400691;28;20093;-89
2022/12/11 10:28:28;;;;;;;21.25;9.13;;;;;;;;;;8400236;28;20068;-94
2022/12/11 10:32:42;;;;;;;31.60;11.60;;;;;;;;;;8401853;28;20071;-96
2022/12/11 10:36:45;;;;;;;22.15;9.00;;;;;;;;;;8398863;28;20047;-93
2022/12/11 10:40:55;;;;;;;18.90;8.52;;;;;;;;;;8402072;28;20044;-92
2022/12/11 10:45:00;;;;;;;19.58;9.52;;;;;;;;;;8401482;28;20086;-95
2022/12/11 10:49:03;;;;;;;23.90;11.13;;;;;;;;;;8397324;28;20056;-88
2022/12/11 10:53:21;;;;;;;16.20;7.57;;;;;;;;;;8412397;28;20040;-86
2022/12/11 10:57:32;;;;;;;30.95;12.25;;;;;;;;;;8383196;28;20044;-82
2022/12/11 11:01:36;;;;;;;24.15;12.48;;;;;;;;;;8405737;28;20056;-83
2022/12/11 11:05:38;;;;;;;21.35;10.88;;;;;;;;;;8408470;28;20044;-86
2022/12/11 11:09:42;;;;;;;18.17;8.18;;;;;;;;;;8420425;28;20115;-93
2022/12/11 11:13:52;;;;;;;24.35;11.68;;;;;;;;;;8413564;28;20353;-90
2022/12/11 11:17:58;;;;;;;16.80;7.30;;;;;;;;;;8414740;28;20033;-90
2022/12/11 11:22:06;;;;;;;28.83;12.70;;;;;;;;;;8409994;28;20044;-93
2022/12/11 11:26:09;;;;;;;22.70;9.65;;;;;;;;;;8432998;28;20062;-83
2022/12/11 11:30:20;;;;;;;20.70;10.10;;;;;;;;;;8430382;28;20060;-95
2022/12/11 11:34:25;;;;;;;11.45;5.65;;;;;;;;;;8414283;28;20044;-89
2022/12/11 11:38:33;;;;;;;26.52;11.73;;;;;;;;;;8434465;28;20060;-92
2022/12/11 11:42:45;;;;;;;29.23;11.25;;;;;;;;;;8421273;28;20045;-87
2022/12/11 11:46:57;;;;;;;13.30;6.47;;;;;;;;;;8421688;28;20155;-83
2022/12/11 11:51:16;;;;;;;11.02;5.70;;;;;;;;;;8427703;28;20040;-82
2022/12/11 11:55:28;;;;;;;22.13;9.23;;;;;;;;;;8429201;28;20054;-82
2022/12/11 12:00:09;;;;;;;22.25;10.55;;;;;;;;;;8438847;28;20138;-83
2022/12/11 12:04:22;;;;;;;24.23;11.18;;;;;;;;;;8403759;28;20156;-89
2022/12/11 12:08:42;;;;;;;24.00;11.25;;;;;;;;;;8385563;28;20092;-85
2022/12/11 12:12:55;;;;;;;30.77;11.05;;;;;;;;;;8339008;28;20045;-83
2022/12/11 12:17:36;;;;;;;30.88;12.25;;;;;;;;;;8344740;28;20058;-89
2022/12/11 12:21:47;;;;;;;15.30;5.38;;;;;;;;;;8351557;28;20394;-89
2022/12/11 12:25:54;;;;;;;27.85;10.80;;;;;;;;;;8359336;28;20102;-90
2022/12/11 12:30:06;;;;;;;17.58;9.25;;;;;;;;;;8353861;28;20045;-94
2022/12/11 12:34:20;;;;;;;27.40;11.82;;;;;;;;;;8398478;28;20049;-86
2022/12/11 12:38:35;;;;;;;32.75;11.43;;;;;;;;;;8386956;28;20076;-94
2022/12/11 12:47:24;;;;;;;25.23;11.15;;;;;;;;;;8343834;28;20037;-83
2022/12/11 12:51:29;;;;;;;24.65;11.00;;;;;;;;;;8363915;28;20491;-84
2022/12/11 12:55:37;;;;;;;38.63;14.93;;;;;;;;;;8348786;28;20033;-85
2022/12/11 12:59:41;;;;;;;30.90;12.80;;;;;;;;;;8357161;28;20057;-90
2022/12/11 13:03:53;;;;;;;26.70;11.52;;;;;;;;;;8352255;28;20068;-90
2022/12/11 13:07:59;;;;;;;26.80;10.43;;;;;;;;;;8351711;28;20049;-91
2022/12/11 13:12:13;;;;;;;18.58;9.85;;;;;;;;;;8406060;28;20060;-93
2022/12/11 13:16:28;;;;;;;29.95;13.40;;;;;;;;;;8434414;28;20048;-92
2022/12/11 13:20:33;;;;;;;34.72;13.32;;;;;;;;;;8409362;28;20040;-94
2022/12/11 13:24:46;;;;;;;28.75;10.90;;;;;;;;;;8414160;28;20105;-87
2022/12/11 13:28:51;;;;;;;37.47;14.13;;;;;;;;;;8421336;28;20107;-84
2022/12/11 13:33:04;;;;;;;40.33;15.52;;;;;;;;;;8425596;28;20094;-83
2022/12/11 13:37:25;;;;;;;22.25;10.52;;;;;;;;;;8413433;28;20044;-91
2022/12/11 13:41:36;;;;;;;33.55;11.73;;;;;;;;;;8409401;28;20058;-85
2022/12/11 13:45:47;;;;;;;28.98;12.93;;;;;;;;;;8416059;28;20104;-85
2022/12/11 13:50:13;;;;;;;30.67;13.27;;;;;;;;;;8429012;28;20051;-89
2022/12/11 13:54:23;;;;;;;44.17;19.17;;;;;;;;;;8427180;28;20056;-92
2022/12/11 13:58:28;;;;;;;40.22;15.82;;;;;;;;;;8426711;28;20048;-93
2022/12/11 14:02:38;;;;;;;38.42;14.82;;;;;;;;;;8423380;28;20472;-91
2022/12/11 14:06:42;;;;;;;31.27;12.35;;;;;;;;;;8420565;28;20060;-87
2022/12/11 14:10:45;;;;;;;14.65;6.57;;;;;;;;;;8424174;28;20060;-87
2022/12/11 14:14:52;;;;;;;27.60;11.35;;;;;;;;;;8426314;28;20099;-95
2022/12/11 14:19:03;;;;;;;13.93;7.65;;;;;;;;;;8412657;28;20096;-95
2022/12/11 14:23:07;;;;;;;33.93;13.43;;;;;;;;;;8418502;28;20132;-86
2022/12/11 14:31:54;;;;;;;32.42;13.65;;;;;;;;;;8441353;28;20599;-94
2022/12/11 14:36:01;;;;;;;44.25;16.85;;;;;;;;;;8425951;28;20029;-96
2022/12/11 14:44:53;;;;;;;33.58;13.25;;;;;;;;;;8391669;28;20056;-89
2022/12/11 14:49:02;;;;;;;35.72;15.32;;;;;;;;;;8421628;28;20052;-87
2022/12/11 14:53:17;;;;;;;46.90;18.07;;;;;;;;;;8399443;28;20047;-88
2022/12/11 14:57:26;;;;;;;51.97;22.17;;;;;;;;;;8401365;28;20104;-87
2022/12/11 15:01:31;;;;;;;46.05;19.88;;;;;;;;;;8388410;28;20061;-83
2022/12/11 15:05:37;;;;;;;43.83;17.75;;;;;;;;;;8403689;28;20154;-82
2022/12/11 15:09:47;;;;;;;44.80;20.20;;;;;;;;;;8410960;28;20056;-84
2022/12/11 15:13:53;;;;;;;46.05;19.70;;;;;;;;;;8422678;28;20044;-86
2022/12/11 15:17:56;;;;;;;48.92;18.58;;;;;;;;;;8414450;28;20048;-81
2022/12/11 15:22:03;;;;;;;54.67;22.27;;;;;;;;;;8436203;28;20041;-82
2022/12/11 15:26:07;;;;;;;49.33;18.27;;;;;;;;;;8407528;28;20047;-90
2022/12/11 15:30:27;;;;;;;53.03;22.35;;;;;;;;;;8431592;28;21316;-94
2022/12/11 15:34:35;;;;;;;41.55;17.17;;;;;;;;;;8428983;28;20104;-83
2022/12/11 15:38:43;;;;;;;51.50;19.67;;;;;;;;;;8427114;28;20062;-94
2022/12/11 15:42:53;;;;;;;54.70;18.50;;;;;;;;;;8416083;28;20060;-94
2022/12/11 15:46:56;;;;;;;60.55;21.15;;;;;;;;;;8404233;28;20045;-92
2022/12/11 15:50:59;;;;;;;18.77;9.52;;;;;;;;;;8411650;28;20049;-86
2022/12/11 15:55:03;;;;;;;91.25;32.47;;;;;;;;;;8403846;28;20074;-89
2022/12/11 15:59:11;;;;;;;34.85;15.70;;;;;;;;;;8405618;28;20059;-84
2022/12/11 16:03:16;;;;;;;44.90;19.00;;;;;;;;;;8415633;28;20127;-89
2022/12/11 16:07:22;;;;;;;61.65;24.13;;;;;;;;;;8415328;28;20142;-87
2022/12/11 16:11:25;;;;;;;67.45;24.35;;;;;;;;;;8433184;28;20079;-87
2022/12/11 16:15:31;;;;;;;46.47;17.30;;;;;;;;;;8434884;28;20044;-94
2022/12/11 16:19:34;;;;;;;45.85;22.15;;;;;;;;;;8419362;28;20487;-82
2022/12/11 16:23:37;;;;;;;26.90;11.90;;;;;;;;;;8411514;28;20052;-86
2022/12/11 16:27:41;;;;;;;52.60;22.08;;;;;;;;;;8402886;28;20070;-90
2022/12/11 16:31:47;;;;;;;34.95;14.65;;;;;;;;;;8401900;28;20427;-86
2022/12/11 16:36:13;;;;;;;14.57;6.60;;;;;;;;;;8401467;28;20101;-94
2022/12/11 16:40:18;;;;;;;43.75;18.95;;;;;;;;;;8419887;28;20045;-89
2022/12/11 16:44:24;;;;;;;34.35;12.45;;;;;;;;;;8425323;28;20044;-94
2022/12/11 16:48:33;;;;;;;27.05;10.95;;;;;;;;;;8417018;28;20486;-95
2022/12/11 16:52:40;;;;;;;34.78;16.25;;;;;;;;;;8416054;28;20040;-95
2022/12/11 16:56:46;;;;;;;63.63;24.83;;;;;;;;;;8415872;28;20545;-96
2022/12/11 17:00:51;;;;;;;44.90;18.50;;;;;;;;;;8429968;28;20048;-86
2022/12/11 17:05:10;;;;;;;94.00;32.83;;;;;;;;;;8434154;28;20041;-83
2022/12/11 17:09:16;;;;;;;65.28;24.80;;;;;;;;;;8418826;28;20063;-88
2022/12/11 17:13:20;;;;;;;47.95;18.05;;;;;;;;;;8411918;28;20052;-82
2022/12/11 17:17:23;;;;;;;55.72;21.27;;;;;;;;;;8404525;28;20055;-90
2022/12/11 17:21:30;;;;;;;137.18;40.67;;;;;;;;;;8400607;28;20056;-88
2022/12/11 17:25:36;;;;;;;47.88;19.25;;;;;;;;;;8393583;28;20068;-94
2022/12/11 17:29:39;;;;;;;44.53;14.82;;;;;;;;;;8394641;28;20076;-90
2022/12/11 17:33:44;;;;;;;34.03;12.70;;;;;;;;;;8379743;28;20527;-88
2022/12/11 17:37:50;;;;;;;52.80;17.85;;;;;;;;;;8401027;28;20095;-85
2022/12/11 17:41:54;;;;;;;41.90;16.83;;;;;;;;;;8400507;28;20045;-86
2022/12/11 17:45:57;;;;;;;55.75;20.00;;;;;;;;;;8410074;28;20049;-91
2022/12/11 17:50:02;;;;;;;67.63;24.92;;;;;;;;;;8406281;28;20063;-86
2022/12/11 17:54:06;;;;;;;39.47;15.40;;;;;;;;;;8414795;28;20045;-92
2022/12/11 17:58:13;;;;;;;44.30;18.10;;;;;;;;;;8411180;28;20055;-87
2022/12/11 18:02:17;;;;;;;129.85;40.17;;;;;;;;;;8404991;28;20057;-91
2022/12/11 18:06:22;;;;;;;53.33;18.75;;;;;;;;;;8398161;28;20053;-93
2022/12/11 18:10:28;;;;;;;153.25;44.03;;;;;;;;;;8410331;28;20619;-89
2022/12/11 18:14:33;;;;;;;50.42;17.70;;;;;;;;;;8424249;28;20071;-86
2022/12/11 18:18:36;;;;;;;29.33;11.32;;;;;;;;;;8411879;28;20056;-84
2022/12/11 18:22:40;;;;;;;41.03;15.65;;;;;;;;;;8422857;28;20062;-82
2022/12/11 18:26:46;;;;;;;34.40;12.25;;;;;;;;;;8412097;28;20424;-85
2022/12/11 18:30:52;;;;;;;61.97;19.42;;;;;;;;;;8407668;28;20048;-82
2022/12/11 18:34:56;;;;;;;66.55;18.65;;;;;;;;;;8408345;28;20036;-93
2022/12/11 18:39:00;;;;;;;146.07;36.85;;;;;;;;;;8394869;28;20052;-82
2022/12/11 18:43:07;;;;;;;56.55;20.55;;;;;;;;;;8401858;28;20044;-85
2022/12/11 18:47:10;;;;;;;42.33;17.88;;;;;;;;;;8406063;28;20041;-88
2022/12/11 18:51:17;;;;;;;93.55;30.83;;;;;;;;;;8393529;28;20139;-91
2022/12/11 18:55:21;;;;;;;52.45;19.60;;;;;;;;;;8407868;28;20419;-91
2022/12/11 18:59:29;;;;;;;35.55;14.05;;;;;;;;;;8396464;28;20045;-90
2022/12/11 19:03:36;;;;;;;40.55;19.88;;;;;;;;;;8397903;28;20079;-88
2022/12/11 19:07:40;;;;;;;49.75;20.98;;;;;;;;;;8400276;28;20119;-94
2022/12/11 19:11:44;;;;;;;53.00;21.80;;;;;;;;;;8400262;28;20043;-83
2022/12/11 19:15:51;;;;;;;45.85;18.80;;;;;;;;;;8400672;28;20032;-94
2022/12/11 19:19:56;;;;;;;50.65;19.08;;;;;;;;;;8401219;28;20044;-95
2022/12/11 19:24:02;;;;;;;40.55;19.48;;;;;;;;;;8402551;28;20040;-94
2022/12/11 19:28:07;;;;;;;54.78;21.38;;;;;;;;;;8402092;28;20040;-83
2022/12/11 19:32:12;;;;;;;42.55;17.17;;;;;;;;;;8400185;28;20090;-88
2022/12/11 19:36:19;;;;;;;34.75;13.05;;;;;;;;;;8401345;28;20041;-95
2022/12/11 19:40:26;;;;;;;39.47;17.88;;;;;;;;;;8396820;28;20491;-89
2022/12/11 19:44:30;;;;;;;36.10;15.70;;;;;;;;;;8356710;28;20147;-83
2022/12/11 19:48:39;;;;;;;39.38;15.90;;;;;;;;;;8403293;28;20049;-83
2022/12/11 19:52:45;;;;;;;33.85;15.35;;;;;;;;;;8403448;28;20068;-93
2022/12/11 19:56:51;;;;;;;28.75;13.18;;;;;;;;;;8395723;28;20098;-92
2022/12/11 20:00:57;;;;;;;18.73;9.63;;;;;;;;;;8396922;28;20044;-88
2022/12/11 20:05:04;;;;;;;28.63;11.95;;;;;;;;;;8401714;28;20493;-82
2022/12/11 20:09:10;;;;;;;33.38;13.57;;;;;;;;;;8388376;28;20135;-83
2022/12/11 20:13:15;;;;;;;38.42;14.85;;;;;;;;;;8399769;28;20051;-86
2022/12/11 20:17:19;;;;;;;44.65;18.88;;;;;;;;;;8377564;28;20064;-92
2022/12/11 20:21:27;;;;;;;48.15;18.52;;;;;;;;;;8402253;28;20507;-80
2022/12/11 20:25:32;;;;;;;51.67;18.80;;;;;;;;;;8343550;28;20128;-82
2022/12/11 20:29:37;;;;;;;27.23;13.35;;;;;;;;;;8402726;28;20037;-93
2022/12/11 20:33:41;;;;;;;21.95;6.68;;;;;;;;;;8388023;28;20132;-93
2022/12/11 20:37:46;;;;;;;34.67;14.75;;;;;;;;;;8402881;28;20055;-84
2022/12/11 20:41:51;;;;;;;31.30;13.65;;;;;;;;;;8404273;28;20044;-82
2022/12/11 20:45:55;;;;;;;17.02;8.07;;;;;;;;;;8404472;28;20518;-82
2022/12/11 20:49:59;;;;;;;13.25;6.07;;;;;;;;;;8404930;28;20044;-93
2022/12/11 20:54:05;;;;;;;33.03;13.10;;;;;;;;;;8374468;28;20072;-89
2022/12/11 20:58:10;;;;;;;31.02;11.05;;;;;;;;;;8390085;28;20048;-92
2022/12/11 21:02:15;;;;;;;34.42;15.23;;;;;;;;;;8393766;28;20067;-87
2022/12/11 21:06:19;;;;;;;11.77;5.70;;;;;;;;;;8394010;28;20055;-87
2022/12/11 21:10:25;;;;;;;28.95;14.43;;;;;;;;;;8397401;28;20071;-89
2022/12/11 21:14:29;;;;;;;28.13;13.93;;;;;;;;;;8404396;28;20075;-92
2022/12/11 21:18:34;;;;;;;24.45;12.27;;;;;;;;;;8405698;28;20064;-87
2022/12/11 21:22:37;;;;;;;31.38;14.50;;;;;;;;;;8403809;28;20507;-89
2022/12/11 21:26:42;;;;;;;30.70;14.50;;;;;;;;;;8399582;28;20072;-94
2022/12/11 21:30:45;;;;;;;35.33;14.95;;;;;;;;;;8395455;28;20496;-93
2022/12/11 21:34:50;;;;;;;28.45;12.32;;;;;;;;;;8389647;28;20049;-92
2022/12/11 21:38:53;;;;;;;28.13;11.65;;;;;;;;;;8402224;28;20048;-82
2022/12/11 21:42:58;;;;;;;19.23;10.27;;;;;;;;;;8403118;28;20465;-88
2022/12/11 21:47:01;;;;;;;34.78;15.13;;;;;;;;;;8402257;28;20447;-93
2022/12/11 21:51:08;;;;;;;33.92;13.68;;;;;;;;;;8405921;28;20098;-94
2022/12/11 21:55:14;;;;;;;28.15;11.95;;;;;;;;;;8404171;28;20037;-88
2022/12/11 21:59:18;;;;;;;29.13;11.55;;;;;;;;;;8403834;28;20052;-88
2022/12/11 22:03:21;;;;;;;28.48;12.95;;;;;;;;;;8407185;28;20048;-89
2022/12/11 22:07:24;;;;;;;40.47;16.02;;;;;;;;;;8408962;28;20045;-88
2022/12/11 22:11:30;;;;;;;27.45;11.65;;;;;;;;;;8393980;28;20063;-88
2022/12/11 22:15:34;;;;;;;30.05;13.57;;;;;;;;;;8408141;28;20373;-88
2022/12/11 22:19:37;;;;;;;37.83;15.48;;;;;;;;;;8409102;28;20123;-94
2022/12/11 22:23:41;;;;;;;30.67;13.05;;;;;;;;;;8411994;28;20541;-93
2022/12/11 22:27:45;;;;;;;26.13;12.30;;;;;;;;;;8413968;28;20058;-91
2022/12/11 22:31:51;;;;;;;19.58;9.68;;;;;;;;;;8419136;28;20470;-89
2022/12/11 22:36:01;;;;;;;33.13;14.07;;;;;;;;;;8418594;28;20049;-86
2022/12/11 22:40:15;;;;;;;38.45;16.20;;;;;;;;;;8419517;28;20066;-85
2022/12/11 22:44:20;;;;;;;21.40;10.32;;;;;;;;;;8416129;28;20391;-95
2022/12/11 22:48:26;;;;;;;24.38;11.50;;;;;;;;;;8410171;28;20448;-88
2022/12/11 22:52:30;;;;;;;28.77;13.90;;;;;;;;;;8409693;28;20047;-82
2022/12/11 22:56:35;;;;;;;34.47;14.65;;;;;;;;;;8408601;28;20053;-96
2022/12/11 23:00:40;;;;;;;36.50;13.88;;;;;;;;;;8405559;28;20143;-87
2022/12/11 23:04:45;;;;;;;35.17;13.85;;;;;;;;;;8406280;28;20044;-93
2022/12/11 23:08:47;;;;;;;30.98;12.55;;;;;;;;;;8391475;28;20050;-93
2022/12/11 23:12:50;;;;;;;31.75;13.30;;;;;;;;;;8407041;28;20102;-87
2022/12/11 23:16:53;;;;;;;35.10;16.27;;;;;;;;;;8399076;28;20068;-85
2022/12/11 23:20:57;;;;;;;27.17;12.93;;;;;;;;;;8411167;28;20056;-83
2022/12/11 23:25:00;;;;;;;28.10;12.43;;;;;;;;;;8411699;28;20052;-84
2022/12/11 23:29:04;;;;;;;38.00;16.02;;;;;;;;;;8411517;28;20051;-83
2022/12/11 23:33:07;;;;;;;30.83;14.35;;;;;;;;;;8412081;28;20060;-82
2022/12/11 23:37:11;;;;;;;31.33;14.70;;;;;;;;;;8419221;28;20049;-94
2022/12/11 23:41:15;;;;;;;36.70;14.77;;;;;;;;;;8414350;28;20040;-94
2022/12/11 23:45:19;;;;;;;36.42;13.63;;;;;;;;;;8402297;28;20047;-84
2022/12/11 23:49:23;;;;;;;36.22;15.73;;;;;;;;;;8410012;28;20040;-94
2022/12/11 23:53:28;;;;;;;38.92;14.45;;;;;;;;;;8411804;28;20070;-90
2022/12/11 23:57:30;;;;;;;30.90;13.27;;;;;;;;;;8408175;28;20048;-82
